Time;durP1;ratioP1;P1;durP2;ratioP2;P2;SDS_P1;SDS_P2;PMS_P1;PMS_P2;Temp;Humidity;BMP_temperature;BMP_pressure;BME280_temperature;BME280_humidity;BME280_pressure;Samples;Min_cycle;Max_cycle;Signal;HPM_P1;HPM_P2
2023/02/06 00:00:13;;;;;;;37.60;17.57;;;;;;;;;;5095092;28;20090;-82
2023/02/06 00:02:39;;;;;;;35.73;15.00;;;;;;;;;;5095234;28;20123;-82
2023/02/06 00:05:05;;;;;;;35.73;15.40;;;;;;;;;;5096238;28;20070;-81
2023/02/06 00:07:30;;;;;;;48.13;16.80;;;;;;;;;;5096206;28;20024;-81
2023/02/06 00:09:56;;;;;;;35.63;14.87;;;;;;;;;;5094579;28;20026;-81
2023/02/06 00:12:21;;;;;;;41.87;17.00;;;;;;;;;;5095454;28;20039;-83
2023/02/06 00:14:48;;;;;;;39.07;16.40;;;;;;;;;;5096586;28;20473;-81
2023/02/06 00:17:13;;;;;;;45.47;18.40;;;;;;;;;;5095569;28;20048;-82
2023/02/06 00:19:39;;;;;;;38.73;16.40;;;;;;;;;;5095807;28;20096;-81
2023/02/06 00:22:05;;;;;;;30.87;13.33;;;;;;;;;;5096072;28;20032;-80
2023/02/06 00:24:30;;;;;;;36.77;13.67;;;;;;;;;;5096421;28;20034;-82
2023/02/06 00:26:56;;;;;;;35.90;13.67;;;;;;;;;;5096548;28;20387;-82
2023/02/06 00:29:21;;;;;;;36.13;13.97;;;;;;;;;;5096966;28;20055;-82
2023/02/06 00:31:47;;;;;;;33.03;16.03;;;;;;;;;;5097655;28;20080;-81
2023/02/06 00:34:12;;;;;;;39.63;16.30;;;;;;;;;;5095906;28;20480;-83
2023/02/06 00:36:38;;;;;;;34.37;14.63;;;;;;;;;;5096095;28;20047;-81
2023/02/06 00:39:03;;;;;;;38.40;14.60;;;;;;;;;;5095939;28;20031;-81
2023/02/06 00:41:29;;;;;;;30.30;14.57;;;;;;;;;;5095396;28;20020;-81
2023/02/06 00:43:54;;;;;;;43.30;17.87;;;;;;;;;;5095590;28;20050;-81
2023/02/06 00:46:20;;;;;;;40.57;15.60;;;;;;;;;;5095309;28;20042;-82
2023/02/06 00:48:45;;;;;;;38.73;15.40;;;;;;;;;;5095302;28;20023;-82
2023/02/06 00:51:11;;;;;;;37.83;16.67;;;;;;;;;;5095303;28;20028;-81
2023/02/06 00:53:37;;;;;;;37.60;16.03;;;;;;;;;;5095642;28;20571;-82
2023/02/06 00:56:03;;;;;;;36.23;18.23;;;;;;;;;;5095415;28;20118;-83
2023/02/06 00:58:28;;;;;;;47.30;16.73;;;;;;;;;;5095542;28;20043;-82
2023/02/06 01:00:54;;;;;;;37.23;17.33;;;;;;;;;;5095548;28;20098;-80
2023/02/06 01:03:20;;;;;;;36.40;17.73;;;;;;;;;;5095213;28;20107;-81
2023/02/06 01:05:45;;;;;;;33.40;16.17;;;;;;;;;;5094616;28;20024;-83
2023/02/06 01:08:11;;;;;;;43.13;16.17;;;;;;;;;;5094903;28;20312;-82
2023/02/06 01:10:40;;;;;;;41.73;16.57;;;;;;;;;;5094040;28;20024;-83
2023/02/06 01:13:06;;;;;;;37.80;16.93;;;;;;;;;;5094982;28;20020;-82
2023/02/06 01:15:31;;;;;;;40.87;17.80;;;;;;;;;;5092293;28;20039;-79
2023/02/06 01:17:57;;;;;;;33.83;16.40;;;;;;;;;;5094355;28;20498;-80
2023/02/06 01:20:23;;;;;;;33.30;16.97;;;;;;;;;;5093113;28;20036;-81
2023/02/06 01:22:49;;;;;;;47.83;17.97;;;;;;;;;;5094323;28;20125;-82
2023/02/06 01:25:15;;;;;;;43.23;19.53;;;;;;;;;;5076245;28;20060;-82
2023/02/06 01:27:40;;;;;;;42.10;20.17;;;;;;;;;;5094740;28;20490;-83
2023/02/06 01:30:08;;;;;;;44.77;19.53;;;;;;;;;;5093765;28;20036;-81
2023/02/06 01:32:38;;;;;;;52.23;20.93;;;;;;;;;;5093481;28;20038;-82
2023/02/06 01:35:08;;;;;;;46.40;20.17;;;;;;;;;;5095475;28;20427;-84
2023/02/06 01:37:34;;;;;;;44.73;21.27;;;;;;;;;;5093771;28;20131;-84
2023/02/06 01:40:03;;;;;;;50.77;21.83;;;;;;;;;;5073212;28;20503;-81
2023/02/06 01:42:28;;;;;;;50.67;19.43;;;;;;;;;;5073025;28;20048;-81
2023/02/06 01:45:18;;;;;;;43.87;19.97;;;;;;;;;;5072541;28;20025;-80
2023/02/06 01:47:44;;;;;;;46.93;21.03;;;;;;;;;;5073014;28;20477;-83
2023/02/06 01:50:09;;;;;;;53.27;21.50;;;;;;;;;;5074711;28;20028;-82
2023/02/06 01:52:35;;;;;;;49.23;19.73;;;;;;;;;;5074117;28;20047;-82
2023/02/06 01:55:02;;;;;;;49.47;21.30;;;;;;;;;;5072767;28;20082;-81
2023/02/06 01:57:29;;;;;;;55.40;22.20;;;;;;;;;;5072791;28;20408;-80
2023/02/06 02:00:03;;;;;;;49.50;21.07;;;;;;;;;;5073955;28;20078;-82
2023/02/06 02:02:31;;;;;;;47.70;19.83;;;;;;;;;;5074712;28;20032;-82
2023/02/06 02:04:58;;;;;;;51.37;20.80;;;;;;;;;;5073776;28;20059;-81
2023/02/06 02:07:33;;;;;;;55.13;21.77;;;;;;;;;;5073852;28;20135;-81
2023/02/06 02:09:59;;;;;;;46.80;21.90;;;;;;;;;;5074286;28;20028;-81
2023/02/06 02:12:24;;;;;;;50.17;20.60;;;;;;;;;;5073674;28;20024;-81
2023/02/06 02:14:52;;;;;;;50.23;21.63;;;;;;;;;;5072875;28;20024;-81
2023/02/06 02:17:32;;;;;;;51.40;21.43;;;;;;;;;;5074201;28;20048;-81
2023/02/06 02:20:10;;;;;;;44.73;19.43;;;;;;;;;;5073609;28;20103;-82
2023/02/06 02:23:21;;;;;;;49.17;18.93;;;;;;;;;;5072052;28;20016;-83
2023/02/06 02:26:30;;;;;;;46.30;20.47;;;;;;;;;;5034621;28;20025;-80
2023/02/06 02:29:04;;;;;;;50.07;19.70;;;;;;;;;;5073881;28;20023;-81
2023/02/06 02:32:15;;;;;;;54.33;20.33;;;;;;;;;;5075588;28;20071;-81
2023/02/06 02:34:52;;;;;;;47.03;19.80;;;;;;;;;;5057025;28;20488;-83
2023/02/06 02:37:38;;;;;;;54.37;19.17;;;;;;;;;;5076920;28;20049;-82
2023/02/06 02:40:24;;;;;;;51.63;19.97;;;;;;;;;;5078233;28;20037;-81
2023/02/06 02:43:21;;;;;;;36.10;18.70;;;;;;;;;;5076461;28;20041;-82
2023/02/06 02:45:56;;;;;;;34.83;16.50;;;;;;;;;;5041841;28;20085;-81
2023/02/06 02:48:39;;;;;;;50.50;17.73;;;;;;;;;;5076431;28;20406;-81
2023/02/06 02:51:06;;;;;;;50.20;19.17;;;;;;;;;;5077448;28;20361;-82
2023/02/06 02:53:31;;;;;;;37.67;16.40;;;;;;;;;;5075958;28;20043;-81
2023/02/06 02:55:58;;;;;;;41.47;17.57;;;;;;;;;;5077773;28;20028;-81
2023/02/06 02:58:28;;;;;;;45.83;17.90;;;;;;;;;;5076738;28;20024;-81
2023/02/06 03:01:01;;;;;;;46.40;17.87;;;;;;;;;;5079438;28;20029;-81
2023/02/06 03:03:28;;;;;;;;;;;;;;;;;;5076121;28;20028;-80
2023/02/06 03:05:59;;;;;;;38.93;15.43;;;;;;;;;;5075078;28;20023;-82
2023/02/06 03:08:51;;;;;;;37.72;16.05;;;;;;;;;;5075016;28;20025;-81
2023/02/06 03:11:19;;;;;;;33.63;16.97;;;;;;;;;;5073664;28;20541;-81
2023/02/06 03:13:50;;;;;;;47.67;17.53;;;;;;;;;;5074944;28;20319;-80
2023/02/06 03:16:31;;;;;;;42.77;16.00;;;;;;;;;;5073043;28;20077;-82
2023/02/06 03:19:04;;;;;;;45.93;17.63;;;;;;;;;;5074635;28;20021;-80
2023/02/06 03:21:31;;;;;;;36.80;17.20;;;;;;;;;;5073339;28;20032;-81
2023/02/06 03:24:01;;;;;;;39.20;14.83;;;;;;;;;;5073636;28;20439;-82
2023/02/06 03:26:29;;;;;;;33.93;16.27;;;;;;;;;;5072816;28;20365;-82
2023/02/06 03:28:59;;;;;;;38.47;16.47;;;;;;;;;;5074436;28;20035;-81
2023/02/06 03:31:31;;;;;;;40.60;15.60;;;;;;;;;;5074607;28;20032;-82
2023/02/06 03:34:07;;;;;;;46.13;16.40;;;;;;;;;;5088424;28;20353;-81
2023/02/06 03:36:34;;;;;;;36.47;16.37;;;;;;;;;;5095271;28;20040;-81
2023/02/06 03:39:00;;;;;;;44.63;17.37;;;;;;;;;;5093321;28;20495;-80
2023/02/06 03:41:30;;;;;;;40.40;16.23;;;;;;;;;;5093337;28;20028;-81
2023/02/06 03:43:58;;;;;;;30.40;15.87;;;;;;;;;;5094367;28;20032;-81
2023/02/06 03:46:27;;;;;;;33.17;16.43;;;;;;;;;;5094969;28;20077;-82
2023/02/06 03:48:56;;;;;;;36.17;15.90;;;;;;;;;;5094921;28;20036;-81
2023/02/06 03:51:27;;;;;;;43.20;14.63;;;;;;;;;;5092975;28;20395;-82
2023/02/06 03:53:56;;;;;;;38.53;16.57;;;;;;;;;;5092817;28;20024;-81
2023/02/06 03:56:28;;;;;;;32.20;14.07;;;;;;;;;;5092881;28;20031;-84
2023/02/06 03:58:54;;;;;;;39.70;14.83;;;;;;;;;;5094303;28;20388;-82
2023/02/06 04:01:21;;;;;;;35.47;17.17;;;;;;;;;;5091833;28;20020;-82
2023/02/06 04:03:46;;;;;;;37.43;14.87;;;;;;;;;;5094192;28;20472;-80
2023/02/06 04:06:12;;;;;;;32.70;13.97;;;;;;;;;;5092353;28;20035;-81
2023/02/06 04:08:37;;;;;;;35.53;15.47;;;;;;;;;;5092510;28;20081;-81
2023/02/06 04:11:03;;;;;;;29.93;13.43;;;;;;;;;;5091841;28;20062;-81
2023/02/06 04:13:29;;;;;;;30.73;13.10;;;;;;;;;;5092008;28;20032;-82
2023/02/06 04:15:55;;;;;;;31.37;13.00;;;;;;;;;;5076225;28;20032;-81
2023/02/06 04:18:22;;;;;;;25.63;12.00;;;;;;;;;;5092364;28;20028;-81
2023/02/06 04:20:50;;;;;;;32.27;14.80;;;;;;;;;;5092884;28;20024;-81
2023/02/06 04:23:18;;;;;;;34.67;13.47;;;;;;;;;;5092187;28;20032;-82
2023/02/06 04:25:44;;;;;;;35.47;14.93;;;;;;;;;;5091959;28;20429;-81
2023/02/06 04:28:09;;;;;;;34.83;15.00;;;;;;;;;;5094172;28;20020;-82
2023/02/06 04:30:35;;;;;;;41.73;16.60;;;;;;;;;;5093968;28;20099;-81
2023/02/06 04:33:00;;;;;;;34.47;14.80;;;;;;;;;;5093570;28;20020;-80
2023/02/06 04:35:26;;;;;;;39.40;15.03;;;;;;;;;;5094536;28;20028;-80
2023/02/06 04:37:52;;;;;;;27.60;14.73;;;;;;;;;;5091161;28;20043;-82
2023/02/06 04:40:17;;;;;;;36.97;15.67;;;;;;;;;;5071564;28;20520;-82
2023/02/06 04:42:43;;;;;;;40.50;14.27;;;;;;;;;;5072016;28;20037;-82
2023/02/06 04:45:09;;;;;;;37.37;14.60;;;;;;;;;;5072295;28;20032;-81
2023/02/06 04:47:34;;;;;;;32.70;15.37;;;;;;;;;;5071707;28;20041;-80
2023/02/06 04:50:00;;;;;;;37.17;15.10;;;;;;;;;;5073394;28;20048;-82
2023/02/06 04:52:25;;;;;;;37.67;15.20;;;;;;;;;;5073084;28;20111;-81
2023/02/06 04:54:50;;;;;;;34.33;14.23;;;;;;;;;;5071751;28;20102;-81
2023/02/06 04:57:16;;;;;;;34.90;14.93;;;;;;;;;;5073498;28;20031;-82
2023/02/06 04:59:41;;;;;;;36.60;15.57;;;;;;;;;;5073058;28;20025;-82
2023/02/06 05:02:07;;;;;;;37.43;13.93;;;;;;;;;;5073174;28;20062;-82
2023/02/06 05:04:33;;;;;;;40.67;15.97;;;;;;;;;;5073661;28;20051;-82
2023/02/06 05:06:58;;;;;;;32.13;14.10;;;;;;;;;;5075376;28;20059;-82
2023/02/06 05:09:24;;;;;;;31.17;15.37;;;;;;;;;;5093289;28;20024;-83
2023/02/06 05:11:49;;;;;;;52.23;15.10;;;;;;;;;;5092165;28;20020;-83
2023/02/06 05:14:15;;;;;;;41.80;15.03;;;;;;;;;;5092972;28;20028;-82
2023/02/06 05:16:40;;;;;;;37.43;14.37;;;;;;;;;;5093122;28;20054;-80
2023/02/06 05:19:06;;;;;;;33.37;12.97;;;;;;;;;;5074996;28;20039;-80
2023/02/06 05:21:32;;;;;;;37.17;13.10;;;;;;;;;;5091910;28;20099;-81
2023/02/06 05:23:57;;;;;;;28.43;13.53;;;;;;;;;;5091184;28;20039;-81
2023/02/06 05:26:23;;;;;;;37.70;14.43;;;;;;;;;;5090941;28;20028;-81
2023/02/06 05:28:48;;;;;;;28.33;13.50;;;;;;;;;;5057157;28;20024;-82
2023/02/06 05:31:18;;;;;;;37.20;13.67;;;;;;;;;;5092397;28;20028;-82
2023/02/06 05:33:45;;;;;;;35.93;13.97;;;;;;;;;;5092830;28;20028;-82
2023/02/06 05:36:10;;;;;;;37.90;15.93;;;;;;;;;;5090790;28;20024;-82
2023/02/06 05:38:36;;;;;;;33.57;13.67;;;;;;;;;;5092245;28;20040;-82
2023/02/06 05:41:02;;;;;;;28.87;14.23;;;;;;;;;;5093940;28;20024;-82
2023/02/06 05:43:28;;;;;;;36.00;15.13;;;;;;;;;;5093663;28;20024;-82
2023/02/06 05:45:53;;;;;;;39.53;15.53;;;;;;;;;;5093519;28;20074;-81
2023/02/06 05:48:19;;;;;;;40.30;14.17;;;;;;;;;;5093384;28;20095;-81
2023/02/06 05:50:47;;;;;;;32.33;15.50;;;;;;;;;;5074893;28;20054;-81
2023/02/06 05:53:13;;;;;;;40.43;14.10;;;;;;;;;;5090907;28;20495;-81
2023/02/06 05:55:39;;;;;;;42.33;15.80;;;;;;;;;;5093325;28;20035;-83
2023/02/06 05:58:04;;;;;;;31.57;13.70;;;;;;;;;;5093123;28;20028;-81
2023/02/06 06:00:30;;;;;;;36.93;14.63;;;;;;;;;;5091136;28;20028;-81
2023/02/06 06:02:55;;;;;;;35.93;14.17;;;;;;;;;;5091897;28;20020;-81
2023/02/06 06:05:20;;;;;;;32.07;14.73;;;;;;;;;;5093176;28;20107;-81
2023/02/06 06:07:46;;;;;;;36.50;15.43;;;;;;;;;;5084224;28;20042;-83
2023/02/06 06:10:12;;;;;;;32.93;13.10;;;;;;;;;;5079750;28;20071;-81
2023/02/06 06:12:37;;;;;;;42.57;14.73;;;;;;;;;;5081165;28;20008;-83
2023/02/06 06:15:03;;;;;;;33.90;15.40;;;;;;;;;;5092648;28;20207;-80
2023/02/06 06:17:29;;;;;;;30.77;15.20;;;;;;;;;;5092172;28;20072;-80
2023/02/06 06:19:54;;;;;;;36.77;14.27;;;;;;;;;;5077676;28;20365;-82
2023/02/06 06:22:20;;;;;;;32.27;13.57;;;;;;;;;;5095729;28;20123;-82
2023/02/06 06:24:45;;;;;;;30.43;14.67;;;;;;;;;;5076610;28;20061;-79
2023/02/06 06:27:11;;;;;;;32.17;12.57;;;;;;;;;;5090172;28;20028;-81
2023/02/06 06:29:36;;;;;;;33.37;15.77;;;;;;;;;;5081425;28;20028;-83
2023/02/06 06:32:07;;;;;;;29.77;14.20;;;;;;;;;;5093889;28;20066;-82
2023/02/06 06:34:32;;;;;;;36.23;14.60;;;;;;;;;;5087764;28;20071;-81
2023/02/06 06:36:58;;;;;;;30.33;14.27;;;;;;;;;;5091486;28;20076;-81
2023/02/06 06:39:24;;;;;;;32.37;14.17;;;;;;;;;;5088112;28;20150;-81
2023/02/06 06:41:49;;;;;;;33.33;14.83;;;;;;;;;;5079524;28;20044;-81
2023/02/06 06:44:15;;;;;;;33.07;15.23;;;;;;;;;;5077240;28;20554;-83
2023/02/06 06:46:41;;;;;;;31.47;14.23;;;;;;;;;;5086147;28;20028;-84
2023/02/06 06:49:06;;;;;;;34.57;14.90;;;;;;;;;;5093257;28;20024;-80
2023/02/06 06:51:32;;;;;;;33.00;15.13;;;;;;;;;;5085713;28;20036;-80
2023/02/06 06:53:57;;;;;;;27.80;12.93;;;;;;;;;;5076918;28;20035;-79
2023/02/06 06:56:23;;;;;;;31.50;15.17;;;;;;;;;;5098831;28;20035;-81
2023/02/06 06:58:49;;;;;;;29.10;13.57;;;;;;;;;;5082231;28;20078;-83
2023/02/06 07:01:16;;;;;;;36.87;14.07;;;;;;;;;;5083282;28;20025;-83
2023/02/06 07:03:47;;;;;;;29.90;14.33;;;;;;;;;;5083501;28;20024;-83
2023/02/06 07:06:14;;;;;;;38.33;14.97;;;;;;;;;;5099535;28;20089;-84
2023/02/06 07:08:40;;;;;;;25.60;12.37;;;;;;;;;;5096140;28;20036;-81
2023/02/06 07:11:15;;;;;;;31.27;13.77;;;;;;;;;;5095356;28;20048;-83
2023/02/06 07:13:41;;;;;;;35.77;14.37;;;;;;;;;;5090546;28;20500;-82
2023/02/06 07:16:09;;;;;;;34.27;15.37;;;;;;;;;;5092591;28;20032;-81
2023/02/06 07:18:34;;;;;;;27.10;13.27;;;;;;;;;;5082276;28;20024;-82
2023/02/06 07:21:00;;;;;;;31.90;13.67;;;;;;;;;;5091570;28;20039;-82
2023/02/06 07:23:26;;;;;;;37.97;14.17;;;;;;;;;;5075802;28;20029;-81
2023/02/06 07:25:52;;;;;;;26.70;14.13;;;;;;;;;;5080003;28;20029;-82
2023/02/06 07:28:17;;;;;;;35.23;16.00;;;;;;;;;;5078637;28;20028;-82
2023/02/06 07:30:43;;;;;;;44.87;15.20;;;;;;;;;;5092911;28;20277;-81
2023/02/06 07:33:08;;;;;;;27.40;13.73;;;;;;;;;;5083562;28;20064;-80
2023/02/06 07:35:34;;;;;;;32.67;14.20;;;;;;;;;;5090013;28;20341;-80
2023/02/06 07:38:00;;;;;;;28.97;12.93;;;;;;;;;;5086478;28;20164;-81
2023/02/06 07:40:25;;;;;;;26.87;13.53;;;;;;;;;;5086742;28;20085;-82
2023/02/06 07:42:51;;;;;;;32.03;13.57;;;;;;;;;;5083715;28;20107;-82
2023/02/06 07:45:16;;;;;;;39.17;15.10;;;;;;;;;;5083551;28;20035;-82
2023/02/06 07:47:44;;;;;;;34.60;14.43;;;;;;;;;;5085564;28;20027;-82
2023/02/06 07:50:10;;;;;;;36.63;15.27;;;;;;;;;;5089341;28;20031;-82
2023/02/06 07:52:36;;;;;;;33.67;14.57;;;;;;;;;;5087987;28;20078;-83
2023/02/06 07:55:02;;;;;;;34.07;13.83;;;;;;;;;;5085531;28;20036;-83
2023/02/06 07:57:28;;;;;;;36.20;13.50;;;;;;;;;;5093157;28;20115;-82
2023/02/06 07:59:53;;;;;;;32.33;15.33;;;;;;;;;;5084076;28;20035;-81
2023/02/06 08:02:19;;;;;;;40.77;15.73;;;;;;;;;;5088573;28;20036;-83
2023/02/06 08:04:45;;;;;;;33.03;14.03;;;;;;;;;;5080665;28;20039;-82
2023/02/06 08:07:13;;;;;;;33.17;15.03;;;;;;;;;;5081064;28;20476;-82
2023/02/06 08:09:41;;;;;;;38.50;15.33;;;;;;;;;;5090471;28;20020;-86
2023/02/06 08:12:07;;;;;;;40.07;13.97;;;;;;;;;;5081960;28;20174;-83
2023/02/06 08:14:33;;;;;;;35.60;17.17;;;;;;;;;;5082753;28;20066;-80
2023/02/06 08:17:01;;;;;;;34.87;16.20;;;;;;;;;;5080108;28;20032;-82
2023/02/06 08:19:28;;;;;;;33.97;13.83;;;;;;;;;;5078753;28;20032;-81
2023/02/06 08:21:56;;;;;;;41.70;15.17;;;;;;;;;;5083149;28;20480;-81
2023/02/06 08:24:22;;;;;;;31.43;14.03;;;;;;;;;;5080780;28;20024;-83
2023/02/06 08:26:48;;;;;;;39.57;15.07;;;;;;;;;;5076911;28;20024;-86
2023/02/06 08:29:14;;;;;;;38.53;16.07;;;;;;;;;;5050347;28;20053;-82
2023/02/06 08:31:41;;;;;;;36.57;14.77;;;;;;;;;;5038847;28;20137;-85
2023/02/06 08:34:09;;;;;;;33.63;14.33;;;;;;;;;;5042413;28;20029;-84
2023/02/06 08:36:35;;;;;;;31.97;15.37;;;;;;;;;;5038991;28;20473;-82
2023/02/06 08:39:03;;;;;;;37.27;15.27;;;;;;;;;;5044554;28;20087;-84
2023/02/06 08:41:35;;;;;;;37.97;14.63;;;;;;;;;;5043230;28;20056;-85
2023/02/06 08:44:03;;;;;;;39.40;17.27;;;;;;;;;;5037150;28;20029;-82
2023/02/06 08:46:31;;;;;;;36.80;16.10;;;;;;;;;;5037990;28;20033;-81
2023/02/06 08:49:03;;;;;;;33.53;16.93;;;;;;;;;;5043928;28;20017;-83
2023/02/06 08:51:30;;;;;;;41.35;16.17;;;;;;;;;;5038923;28;20029;-84
2023/02/06 08:54:04;;;;;;;41.40;17.97;;;;;;;;;;5038741;28;20794;-82
2023/02/06 08:56:31;;;;;;;40.80;17.30;;;;;;;;;;5032516;28;20489;-82
2023/02/06 08:59:00;;;;;;;36.17;16.50;;;;;;;;;;5041049;28;20389;-80
2023/02/06 09:01:28;;;;;;;58.67;24.33;;;;;;;;;;5040180;28;20029;-80
2023/02/06 09:03:55;;;;;;;39.30;16.33;;;;;;;;;;5048313;28;20036;-79
2023/02/06 09:06:25;;;;;;;45.23;17.47;;;;;;;;;;5026474;28;20039;-80
2023/02/06 09:08:53;;;;;;;39.63;15.37;;;;;;;;;;5039942;28;20033;-81
2023/02/06 09:11:23;;;;;;;37.97;15.93;;;;;;;;;;5034583;28;20408;-81
2023/02/06 09:13:50;;;;;;;37.17;15.33;;;;;;;;;;5053406;28;20029;-80
2023/02/06 09:16:19;;;;;;;46.73;16.03;;;;;;;;;;5036588;28;20135;-84
2023/02/06 09:18:48;;;;;;;38.50;17.00;;;;;;;;;;5034075;28;20033;-81
2023/02/06 09:21:17;;;;;;;33.03;15.93;;;;;;;;;;5039798;28;20072;-82
2023/02/06 09:23:48;;;;;;;33.17;15.03;;;;;;;;;;5052008;28;20025;-83
2023/02/06 09:26:16;;;;;;;41.45;15.13;;;;;;;;;;5047171;28;20041;-83
2023/02/06 09:28:42;;;;;;;32.13;15.53;;;;;;;;;;5045638;28;20465;-84
2023/02/06 09:31:08;;;;;;;40.83;16.83;;;;;;;;;;5034037;28;20053;-83
2023/02/06 09:33:36;;;;;;;32.50;15.90;;;;;;;;;;5023782;28;20096;-81
2023/02/06 09:36:08;;;;;;;30.70;15.57;;;;;;;;;;5031118;28;20370;-83
2023/02/06 09:38:35;;;;;;;34.88;16.08;;;;;;;;;;5025354;28;20053;-82
2023/02/06 09:41:04;;;;;;;37.37;16.60;;;;;;;;;;5027224;28;20040;-80
2023/02/06 09:43:32;;;;;;;42.67;16.93;;;;;;;;;;5033008;28;20035;-84
2023/02/06 09:46:04;;;;;;;33.90;14.77;;;;;;;;;;5029591;28;20025;-80
2023/02/06 09:48:34;;;;;;;30.85;14.90;;;;;;;;;;5024167;28;20023;-84
2023/02/06 09:51:21;;;;;;;35.10;16.20;;;;;;;;;;5006000;28;20504;-83
2023/02/06 09:53:55;;;;;;;35.20;15.37;;;;;;;;;;5015814;28;20729;-84
2023/02/06 09:56:49;;;;;;;44.90;18.67;;;;;;;;;;5024577;28;20029;-79
2023/02/06 09:59:46;;;;;;;37.20;15.70;;;;;;;;;;5023269;28;20046;-82
2023/02/06 10:02:30;;;;;;;34.17;15.80;;;;;;;;;;5029412;28;20040;-80
2023/02/06 10:05:02;;;;;;;33.97;15.77;;;;;;;;;;5032466;28;20097;-80
2023/02/06 10:07:58;;;;;;;45.88;16.33;;;;;;;;;;5031272;28;20037;-81
2023/02/06 10:10:27;;;;;;;29.03;14.17;;;;;;;;;;5026002;28;20041;-83
2023/02/06 10:13:04;;;;;;;36.90;15.60;;;;;;;;;;5030736;28;20025;-82
2023/02/06 10:15:38;;;;;;;33.23;14.57;;;;;;;;;;5029635;28;20036;-81
2023/02/06 10:18:11;;;;;;;33.83;16.30;;;;;;;;;;5025071;28;20040;-84
2023/02/06 10:20:54;;;;;;;37.03;16.63;;;;;;;;;;5025302;28;20524;-82
2023/02/06 10:23:29;;;;;;;;;;;;;;;;;;5028509;28;20021;-82
2023/02/06 10:26:07;;;;;;;38.90;14.57;;;;;;;;;;5020061;28;19928;-82
2023/02/06 10:28:34;;;;;;;34.47;14.47;;;;;;;;;;5022323;28;20022;-80
2023/02/06 10:31:09;;;;;;;37.07;17.20;;;;;;;;;;5029584;28;20061;-86
2023/02/06 10:33:34;;;;;;;35.27;15.50;;;;;;;;;;5013994;28;20038;-83
2023/02/06 10:36:14;;;;;;;37.07;15.67;;;;;;;;;;5026812;28;20044;-81
2023/02/06 10:38:48;;;;;;;34.70;14.20;;;;;;;;;;5021653;28;20076;-83
2023/02/06 10:41:31;;;;;;;33.50;15.30;;;;;;;;;;5025377;28;20059;-84
2023/02/06 10:44:22;;;;;;;35.90;14.87;;;;;;;;;;5016732;28;20052;-84
2023/02/06 10:46:50;;;;;;;31.50;15.50;;;;;;;;;;5030328;28;20049;-85
2023/02/06 10:49:29;;;;;;;36.53;14.43;;;;;;;;;;5029269;28;20113;-82
2023/02/06 10:52:12;;;;;;;35.77;15.07;;;;;;;;;;5026446;28;20038;-83
2023/02/06 10:54:40;;;;;;;35.77;13.80;;;;;;;;;;5029174;28;20034;-82
2023/02/06 10:57:30;;;;;;;31.80;15.27;;;;;;;;;;5027097;28;20025;-80
2023/02/06 11:00:00;;;;;;;34.03;13.80;;;;;;;;;;5033593;28;20080;-84
2023/02/06 11:02:54;;;;;;;49.33;16.63;;;;;;;;;;5041014;28;20037;-82
2023/02/06 11:05:25;;;;;;;37.37;14.93;;;;;;;;;;5033372;28;20712;-85
2023/02/06 11:07:54;;;;;;;36.17;16.03;;;;;;;;;;5033833;28;20040;-83
2023/02/06 11:10:23;;;;;;;34.53;18.03;;;;;;;;;;5039144;28;20032;-84
2023/02/06 11:13:09;;;;;;;46.50;17.10;;;;;;;;;;5031947;28;20034;-82
2023/02/06 11:15:50;;;;;;;30.37;14.93;;;;;;;;;;5027970;28;20045;-81
2023/02/06 11:18:23;;;;;;;35.75;16.17;;;;;;;;;;5035432;28;20052;-80
2023/02/06 11:20:49;;;;;;;40.67;16.90;;;;;;;;;;5037799;28;20056;-84
2023/02/06 11:23:27;;;;;;;32.63;14.43;;;;;;;;;;5039097;28;20125;-81
2023/02/06 11:26:14;;;;;;;29.37;14.97;;;;;;;;;;5040887;28;20087;-81
2023/02/06 11:28:57;;;;;;;33.70;14.97;;;;;;;;;;5039711;28;20204;-80
2023/02/06 11:31:51;;;;;;;32.97;14.37;;;;;;;;;;5021202;28;20036;-80
2023/02/06 11:34:41;;;;;;;31.23;14.03;;;;;;;;;;5038746;28;20032;-81
2023/02/06 11:37:31;;;;;;;35.17;14.87;;;;;;;;;;5036543;28;20407;-80
2023/02/06 11:40:26;;;;;;;43.73;21.10;;;;;;;;;;5019080;28;20056;-80
2023/02/06 11:43:17;;;;;;;33.37;14.40;;;;;;;;;;5015013;28;20037;-82
2023/02/06 11:45:44;;;;;;;28.17;13.23;;;;;;;;;;5029814;28;20026;-81
2023/02/06 11:48:32;;;;;;;31.50;14.97;;;;;;;;;;5035669;28;20029;-81
2023/02/06 11:50:58;;;;;;;34.90;13.17;;;;;;;;;;5034431;28;20025;-79
2023/02/06 11:53:25;;;;;;;44.87;13.53;;;;;;;;;;5035699;28;20033;-81
2023/02/06 11:56:01;;;;;;;28.00;13.80;;;;;;;;;;5036421;28;20052;-81
2023/02/06 11:58:28;;;;;;;30.73;13.00;;;;;;;;;;5026639;28;20033;-81
2023/02/06 12:01:00;;;;;;;29.13;13.50;;;;;;;;;;5025731;28;20659;-83
2023/02/06 12:03:36;;;;;;;26.17;13.73;;;;;;;;;;5025053;28;20121;-81
2023/02/06 12:06:16;;;;;;;31.10;14.93;;;;;;;;;;5029674;28;20063;-81
2023/02/06 12:08:51;;;;;;;26.23;12.23;;;;;;;;;;5023284;28;20389;-83
2023/02/06 12:11:32;;;;;;;21.93;11.47;;;;;;;;;;5020190;28;20010;-80
2023/02/06 12:14:13;;;;;;;22.53;11.03;;;;;;;;;;5039236;28;20762;-80
2023/02/06 12:16:44;;;;;;;23.63;9.85;;;;;;;;;;5022089;28;20045;-80
2023/02/06 12:19:18;;;;;;;22.27;10.77;;;;;;;;;;5031634;28;20034;-81
2023/02/06 12:21:48;;;;;;;24.13;10.77;;;;;;;;;;5020674;28;20033;-83
2023/02/06 12:24:27;;;;;;;21.87;10.97;;;;;;;;;;5029742;28;20448;-83
2023/02/06 12:26:56;;;;;;;23.17;11.27;;;;;;;;;;5031013;28;20516;-82
2023/02/06 12:29:28;;;;;;;28.63;11.90;;;;;;;;;;5025438;28;20022;-81
2023/02/06 12:32:06;;;;;;;20.97;11.17;;;;;;;;;;5024453;28;20026;-81
2023/02/06 12:35:13;;;;;;;28.87;10.70;;;;;;;;;;5020405;28;20037;-79
2023/02/06 12:37:51;;;;;;;29.37;12.10;;;;;;;;;;5019622;28;20156;-80
2023/02/06 12:40:41;;;;;;;28.87;11.53;;;;;;;;;;5018720;28;20477;-84
2023/02/06 12:43:12;;;;;;;23.83;12.20;;;;;;;;;;5029945;28;20109;-81
2023/02/06 12:45:42;;;;;;;28.15;12.07;;;;;;;;;;5021487;28;20037;-81
2023/02/06 12:48:28;;;;;;;24.63;10.97;;;;;;;;;;5024656;28;20664;-79
2023/02/06 12:51:16;;;;;;;21.33;11.53;;;;;;;;;;5028459;28;20033;-81
2023/02/06 12:54:03;;;;;;;24.67;11.37;;;;;;;;;;5021851;28;20135;-85
2023/02/06 12:56:49;;;;;;;27.03;11.97;;;;;;;;;;5027476;28;20087;-80
2023/02/06 12:59:45;;;;;;;19.30;9.10;;;;;;;;;;5025957;28;20041;-81
2023/02/06 13:02:25;;;;;;;25.63;8.90;;;;;;;;;;5016337;28;20620;-80
2023/02/06 13:04:51;;;;;;;14.67;7.83;;;;;;;;;;5022990;28;20037;-80
2023/02/06 13:07:21;;;;;;;17.43;7.90;;;;;;;;;;5025941;28;20033;-81
2023/02/06 13:10:03;;;;;;;21.03;8.33;;;;;;;;;;5031436;28;20032;-81
2023/02/06 13:12:31;;;;;;;23.90;8.57;;;;;;;;;;5005977;28;20030;-81
2023/02/06 13:15:06;;;;;;;16.00;6.20;;;;;;;;;;5022696;28;20044;-80
2023/02/06 13:17:39;;;;;;;13.33;6.80;;;;;;;;;;5020530;28;20411;-81
2023/02/06 13:20:04;;;;;;;;;;;;;;;;;;5021833;28;20064;-83
2023/02/06 13:22:33;;;;;;;15.03;6.43;;;;;;;;;;5021917;28;20032;-80
2023/02/06 13:25:00;;;;;;;12.43;6.07;;;;;;;;;;5027253;28;20088;-82
2023/02/06 13:27:53;;;;;;;10.07;6.20;;;;;;;;;;5026333;28;20033;-83
2023/02/06 13:30:29;;;;;;;15.05;6.38;;;;;;;;;;5018985;28;20037;-82
2023/02/06 13:33:07;;;;;;;16.33;6.97;;;;;;;;;;5023951;28;20029;-80
2023/02/06 13:35:33;;;;;;;14.70;6.37;;;;;;;;;;5030989;28;20543;-80
2023/02/06 13:38:24;;;;;;;10.63;6.17;;;;;;;;;;5024291;28;20053;-80
2023/02/06 13:41:15;;;;;;;12.95;7.03;;;;;;;;;;5028877;28;20519;-80
2023/02/06 13:43:53;;;;;;;15.13;7.50;;;;;;;;;;5016562;28;20129;-79
2023/02/06 13:46:22;;;;;;;20.20;7.60;;;;;;;;;;5015876;28;20022;-79
2023/02/06 13:49:25;;;;;;;12.47;6.00;;;;;;;;;;5030960;28;20105;-83
2023/02/06 13:51:57;;;;;;;17.30;7.73;;;;;;;;;;5025404;28;20033;-79
2023/02/06 13:54:35;;;;;;;;;;;;;;;;;;5025254;28;20054;-83
2023/02/06 13:57:26;;;;;;;26.00;9.03;;;;;;;;;;5027188;28;20420;-79
2023/02/06 14:00:14;;;;;;;19.33;8.80;;;;;;;;;;5020947;28;20041;-80
2023/02/06 14:02:48;;;;;;;17.60;8.07;;;;;;;;;;5035737;28;20025;-81
2023/02/06 14:05:24;;;;;;;17.00;7.63;;;;;;;;;;5034902;28;20036;-81
2023/02/06 14:08:18;;;;;;;17.57;7.90;;;;;;;;;;5021830;28;20041;-83
2023/02/06 14:11:07;;;;;;;19.97;8.63;;;;;;;;;;5022461;28;20482;-81
2023/02/06 14:13:58;;;;;;;19.40;7.83;;;;;;;;;;5019357;28;20112;-80
2023/02/06 14:16:43;;;;;;;14.63;7.10;;;;;;;;;;5018677;28;20022;-82
2023/02/06 14:19:24;;;;;;;13.43;5.53;;;;;;;;;;5025347;28;20034;-81
2023/02/06 14:22:07;;;;;;;19.37;8.00;;;;;;;;;;5022925;28;20047;-81
2023/02/06 14:25:03;;;;;;;20.07;8.03;;;;;;;;;;5037847;28;20095;-79
2023/02/06 14:27:40;;;;;;;20.10;8.97;;;;;;;;;;5017294;28;20033;-79
2023/02/06 14:30:33;;;;;;;31.20;9.63;;;;;;;;;;5029819;28;20108;-78
2023/02/06 14:33:36;;;;;;;19.87;7.90;;;;;;;;;;5031517;28;20026;-80
2023/02/06 14:36:16;;;;;;;19.37;8.37;;;;;;;;;;5025866;28;20033;-78
2023/02/06 14:39:13;;;;;;;20.67;10.83;;;;;;;;;;5019888;28;20037;-79
2023/02/06 14:41:39;;;;;;;22.87;9.60;;;;;;;;;;5031740;28;20381;-80
2023/02/06 14:44:19;;;;;;;19.57;9.50;;;;;;;;;;5036071;28;20032;-79
2023/02/06 14:46:45;;;;;;;24.00;10.33;;;;;;;;;;5026907;28;20053;-82